Time;durP1;ratioP1;P1;durP2;ratioP2;P2;SDS_P1;SDS_P2;PMS_P1;PMS_P2;Temp;Humidity;BMP_temperature;BMP_pressure;BME280_temperature;BME280_humidity;BME280_pressure;Samples;Min_cycle;Max_cycle;Signal;HPM_P1;HPM_P2
2023/08/28 00:00:27;;;;;;;9.10;4.60;;;;;;;25.86;71.51;100339.11;109769;1241;62764;-71
2023/08/28 00:03:16;;;;;;;7.40;4.30;;;;;;;25.78;73.13;100342.06;109528;1241;73667;-72
2023/08/28 00:05:45;;;;;;;7.20;4.30;;;;;;;25.71;72.66;100343.01;109783;1241;59588;-71
2023/08/28 00:08:14;;;;;;;7.90;3.80;;;;;;;25.64;70.79;100344.09;109744;1244;62266;-71
2023/08/28 00:10:43;;;;;;;7.40;4.20;;;;;;;25.52;72.19;100340.98;109745;1241;60454;-71
2023/08/28 00:13:12;;;;;;;8.40;4.50;;;;;;;25.42;72.98;100334.23;109443;1247;57173;-72
2023/08/28 00:15:41;;;;;;;7.00;4.10;;;;;;;25.32;73.68;100334.29;109603;1241;70361;-71
2023/08/28 00:18:09;;;;;;;4.90;4.10;;;;;;;25.23;75.04;100329.27;109759;1241;72617;-70
2023/08/28 00:20:38;;;;;;;8.40;4.70;;;;;;;25.17;75.68;100331.04;109758;1244;59481;-70
2023/08/28 00:23:07;;;;;;;7.10;4.90;;;;;;;25.07;74.58;100331.20;109727;1242;63228;-71
2023/08/28 00:25:36;;;;;;;6.60;4.20;;;;;;;24.97;74.85;100332.30;109731;1244;57182;-71
2023/08/28 00:28:05;;;;;;;8.40;4.30;;;;;;;24.86;76.12;100329.00;109657;1241;57482;-71
2023/08/28 00:30:34;;;;;;;7.70;4.40;;;;;;;24.75;78.34;100331.80;109642;1241;73420;-71
2023/08/28 00:33:03;;;;;;;9.40;4.30;;;;;;;24.66;78.86;100330.74;109715;1241;72317;-71
2023/08/28 00:35:32;;;;;;;7.00;4.20;;;;;;;24.55;80.05;100331.85;109737;1241;71431;-71
2023/08/28 00:38:01;;;;;;;7.40;4.30;;;;;;;24.52;80.45;100332.42;109682;1244;62752;-71
2023/08/28 00:40:30;;;;;;;7.60;4.10;;;;;;;24.45;80.50;100331.96;109646;1241;57700;-71
2023/08/28 00:42:59;;;;;;;7.10;4.60;;;;;;;24.38;81.27;100329.83;109601;1241;60344;-71
2023/08/28 00:45:28;;;;;;;7.10;4.00;;;;;;;24.30;82.06;100329.41;109626;1241;63409;-70
2023/08/28 00:47:57;;;;;;;7.80;4.40;;;;;;;24.22;82.12;100325.73;109540;1241;72568;-71
2023/08/28 00:50:26;;;;;;;6.30;4.20;;;;;;;24.16;82.67;100329.06;109367;1246;59358;-71
2023/08/28 00:52:55;;;;;;;6.70;4.50;;;;;;;24.12;81.07;100328.58;109463;1241;73588;-71
2023/08/28 00:55:23;;;;;;;6.40;4.30;;;;;;;24.08;80.27;100324.67;109646;1241;61437;-70
2023/08/28 00:57:52;;;;;;;8.20;4.50;;;;;;;23.99;82.69;100325.61;109635;1244;58151;-71
2023/08/28 01:00:21;;;;;;;8.90;4.10;;;;;;;23.93;83.25;100328.08;109498;1242;61941;-71
2023/08/28 01:02:50;;;;;;;6.30;4.20;;;;;;;23.87;84.07;100332.77;109611;1245;61434;-71
2023/08/28 01:05:29;;;;;;;7.00;4.30;;;;;;;23.84;81.70;100334.66;109729;1241;61005;-72
2023/08/28 01:08:25;;;;;;;10.30;4.10;;;;;;;23.72;84.28;100335.08;109509;1241;63055;-72
2023/08/28 01:11:20;;;;;;;8.90;4.60;;;;;;;23.66;86.42;100333.76;109650;1244;57200;-72
2023/08/28 01:14:00;;;;;;;7.70;4.50;;;;;;;23.65;86.62;100337.00;109610;1241;57660;-72
2023/08/28 01:16:30;;;;;;;5.40;4.20;;;;;;;23.60;86.95;100334.99;109749;1241;61926;-71
2023/08/28 01:18:59;;;;;;;8.90;4.00;;;;;;;23.53;86.94;100331.06;109532;1241;61245;-72
2023/08/28 01:21:28;;;;;;;7.60;4.40;;;;;;;23.46;86.51;100331.34;109696;1241;59790;-71
2023/08/28 01:24:06;;;;;;;6.10;4.20;;;;;;;23.44;84.48;100328.42;109652;1241;63124;-72
2023/08/28 01:26:35;;;;;;;6.70;4.30;;;;;;;23.35;87.22;100324.81;109589;1241;60194;-71
2023/08/28 01:29:03;;;;;;;8.20;4.60;;;;;;;23.34;87.30;100319.68;109519;1245;57219;-70
2023/08/28 01:31:32;;;;;;;6.70;4.80;;;;;;;23.31;87.92;100319.27;109733;1241;62765;-71
2023/08/28 01:34:01;;;;;;;7.70;4.50;;;;;;;23.35;88.67;100319.89;109649;1241;71865;-71
2023/08/28 01:36:53;;;;;;;9.50;4.10;;;;;;;23.32;88.41;100319.07;109739;1241;71353;-70
2023/08/28 01:39:33;;;;;;;8.80;4.90;;;;;;;23.22;89.31;100317.58;109546;1241;62888;-70
2023/08/28 01:42:05;;;;;;;8.50;4.00;;;;;;;23.18;90.04;100316.17;109600;1245;61035;-71
2023/08/28 01:44:35;;;;;;;8.30;5.10;;;;;;;23.14;90.21;100315.19;109523;1241;61446;-71
2023/08/28 01:47:04;;;;;;;6.10;4.50;;;;;;;23.09;89.83;100316.70;109520;1241;63559;-71
2023/08/28 01:49:33;;;;;;;7.10;4.90;;;;;;;23.06;88.61;100317.88;109601;1242;61442;-70
2023/08/28 01:52:02;;;;;;;6.80;4.80;;;;;;;22.91;90.24;100316.38;109650;1241;71267;-71
2023/08/28 01:54:30;;;;;;;7.10;5.30;;;;;;;22.99;91.55;100313.77;109712;1243;73928;-71
2023/08/28 01:56:59;;;;;;;7.40;5.00;;;;;;;23.03;91.19;100315.95;109632;1244;57443;-71
2023/08/28 01:59:29;;;;;;;8.10;4.50;;;;;;;22.98;91.05;100318.27;109632;1241;57472;-71
2023/08/28 02:01:57;;;;;;;7.70;4.40;;;;;;;22.98;91.18;100319.09;109633;1241;73500;-71
2023/08/28 02:04:26;;;;;;;8.50;4.70;;;;;;;23.05;91.12;100317.63;109698;1241;61548;-72
2023/08/28 02:06:55;;;;;;;7.20;4.40;;;;;;;23.14;91.11;100318.21;109614;1241;59899;-72
2023/08/28 02:09:24;;;;;;;6.90;4.40;;;;;;;23.08;91.12;100311.90;109577;1241;73585;-71
2023/08/28 02:11:52;;;;;;;8.40;5.20;;;;;;;22.96;91.46;100313.39;109730;1242;61375;-71
2023/08/28 02:14:22;;;;;;;6.70;5.00;;;;;;;22.94;91.98;100311.79;109639;1241;57198;-72
2023/08/28 02:16:50;;;;;;;10.30;5.20;;;;;;;23.11;92.33;100314.73;109649;1241;73304;-73
2023/08/28 02:19:19;;;;;;;10.90;5.30;;;;;;;23.15;91.52;100314.90;109634;1241;61426;-71
2023/08/28 02:21:48;;;;;;;8.80;4.90;;;;;;;23.15;91.39;100310.55;109657;1241;59875;-70
2023/08/28 02:24:17;;;;;;;9.00;4.70;;;;;;;23.06;91.51;100309.80;109712;1242;74221;-70
2023/08/28 02:26:45;;;;;;;14.40;6.00;;;;;;;22.95;92.91;100306.63;109523;1245;62059;-70
2023/08/28 02:29:14;;;;;;;6.60;5.20;;;;;;;22.91;93.13;100307.84;109637;1241;57692;-70
2023/08/28 02:31:43;;;;;;;8.90;4.80;;;;;;;22.87;93.67;100312.36;109634;1241;62804;-69
2023/08/28 02:34:12;;;;;;;8.10;4.90;;;;;;;22.79;93.80;100316.34;109683;1243;71306;-74
2023/08/28 02:36:41;;;;;;;7.10;5.00;;;;;;;22.73;94.14;100317.42;109607;1241;69609;-72
2023/08/28 02:39:10;;;;;;;7.70;5.00;;;;;;;22.75;94.53;100321.70;109701;1241;63410;-72
2023/08/28 02:41:39;;;;;;;7.90;5.60;;;;;;;22.70;94.40;100319.50;109710;1242;57212;-73
2023/08/28 02:44:09;;;;;;;10.00;5.00;;;;;;;22.69;95.08;100321.43;109670;1241;60964;-73
2023/08/28 02:46:40;;;;;;;8.20;5.60;;;;;;;22.73;95.35;100323.04;109755;1241;63151;-72
2023/08/28 02:49:09;;;;;;;8.90;5.20;;;;;;;22.79;95.53;100319.09;109725;1241;71416;-72
2023/08/28 02:51:38;;;;;;;10.40;5.00;;;;;;;22.73;95.42;100319.07;109759;1241;59639;-72
2023/08/28 02:54:08;;;;;;;6.40;4.80;;;;;;;22.64;95.40;100320.35;109654;1241;72396;-73
2023/08/28 02:56:40;;;;;;;9.20;5.00;;;;;;;22.55;96.32;100325.34;109642;1244;57219;-72
2023/08/28 02:59:09;;;;;;;7.00;5.50;;;;;;;22.48;96.78;100324.58;109698;1241;57661;-73
2023/08/28 03:01:38;;;;;;;9.40;5.70;;;;;;;22.55;97.47;100325.14;109661;1241;61977;-73
2023/08/28 03:04:07;;;;;;;10.60;5.50;;;;;;;22.55;97.12;100326.31;109744;1241;60966;-72
2023/08/28 03:06:37;;;;;;;8.20;5.30;;;;;;;22.49;97.08;100329.52;109647;1241;59751;-73
2023/08/28 03:09:12;;;;;;;7.10;5.30;;;;;;;22.39;97.14;100322.77;109630;1244;73174;-72
2023/08/28 03:11:41;;;;;;;7.10;4.90;;;;;;;22.36;97.27;100322.30;109744;1241;60227;-73
2023/08/28 03:14:10;;;;;;;9.20;5.10;;;;;;;22.35;98.14;100321.89;109533;1241;57749;-69
2023/08/28 03:16:38;;;;;;;16.00;6.70;;;;;;;22.31;98.23;100322.90;109668;1241;73894;-71
2023/08/28 03:19:07;;;;;;;9.30;7.00;;;;;;;22.25;98.84;100318.52;109619;1241;72311;-70
2023/08/28 03:21:36;;;;;;;9.10;5.60;;;;;;;22.24;98.54;100316.19;109487;1241;59583;-70
2023/08/28 03:24:05;;;;;;;8.10;5.20;;;;;;;22.17;98.92;100324.73;109675;1244;73520;-70
2023/08/28 03:26:34;;;;;;;7.30;5.10;;;;;;;22.16;98.69;100326.38;109551;1244;61516;-69
2023/08/28 03:29:03;;;;;;;7.30;5.10;;;;;;;22.21;98.67;100327.21;109626;1241;60584;-69
2023/08/28 03:31:32;;;;;;;9.20;5.40;;;;;;;22.18;98.14;100329.61;109548;1241;63921;-72
2023/08/28 03:34:01;;;;;;;10.00;5.80;;;;;;;22.16;98.64;100332.34;109454;1241;61097;-72
2023/08/28 03:36:31;;;;;;;9.90;6.20;;;;;;;22.19;98.88;100331.55;109557;1241;59032;-72
2023/08/28 03:39:01;;;;;;;9.60;5.30;;;;;;;22.22;99.40;100331.11;109544;1241;62304;-71
2023/08/28 03:41:30;;;;;;;9.00;6.10;;;;;;;22.35;98.83;100335.69;109522;1244;60988;-71
2023/08/28 03:43:58;;;;;;;8.10;5.50;;;;;;;22.42;97.71;100337.85;109502;1242;60491;-71
2023/08/28 03:46:27;;;;;;;14.90;6.40;;;;;;;22.43;97.16;100339.98;109579;1242;63328;-71
2023/08/28 03:48:56;;;;;;;9.40;5.90;;;;;;;22.40;97.26;100339.47;109394;1245;60666;-72
2023/08/28 03:51:25;;;;;;;13.20;5.70;;;;;;;22.37;97.31;100339.79;109362;1244;70565;-72
2023/08/28 03:53:53;;;;;;;11.60;6.10;;;;;;;22.34;96.71;100336.33;109474;1244;73319;-72
2023/08/28 03:56:22;;;;;;;11.30;5.70;;;;;;;22.30;97.79;100334.92;109494;1241;57300;-72
2023/08/28 03:58:51;;;;;;;11.70;6.60;;;;;;;22.28;98.29;100336.49;109482;1241;57505;-72
2023/08/28 04:01:20;;;;;;;12.50;6.50;;;;;;;22.30;98.35;100339.80;109523;1241;73475;-73
2023/08/28 04:03:48;;;;;;;11.20;6.60;;;;;;;22.29;98.89;100345.68;109681;1241;70736;-72
2023/08/28 04:06:17;;;;;;;14.50;6.40;;;;;;;22.33;98.78;100348.98;109751;1241;60171;-72
2023/08/28 04:08:46;;;;;;;12.00;7.00;;;;;;;22.33;98.77;100350.70;109678;1241;63040;-72
2023/08/28 04:11:15;;;;;;;12.30;6.50;;;;;;;22.35;98.62;100349.85;109597;1244;60473;-72
2023/08/28 04:13:43;;;;;;;14.50;7.60;;;;;;;22.37;98.54;100347.23;109613;1243;62112;-72
2023/08/28 04:16:13;;;;;;;15.30;7.20;;;;;;;22.42;98.81;100349.33;109571;1245;63703;-72
2023/08/28 04:18:42;;;;;;;17.10;6.60;;;;;;;22.47;98.04;100346.80;109619;1244;61458;-72
2023/08/28 04:21:11;;;;;;;16.30;6.60;;;;;;;22.58;96.44;100350.42;109640;1244;69490;-72
2023/08/28 04:23:39;;;;;;;15.10;6.20;;;;;;;22.70;95.61;100353.13;109457;1243;74185;-72
2023/08/28 04:26:08;;;;;;;13.30;5.70;;;;;;;22.89;93.29;100351.34;109431;1246;57219;-73
2023/08/28 04:28:37;;;;;;;9.40;5.50;;;;;;;22.98;92.52;100356.00;109648;1244;57196;-72
2023/08/28 04:31:09;;;;;;;8.90;5.80;;;;;;;23.11;92.01;100354.98;109624;1243;73485;-71
2023/08/28 04:33:38;;;;;;;8.00;4.60;;;;;;;23.27;91.48;100353.79;109528;1244;72392;-71
2023/08/28 04:36:07;;;;;;;8.40;4.60;;;;;;;23.37;89.72;100353.50;109390;1243;70463;-71
2023/08/28 04:38:35;;;;;;;10.70;4.60;;;;;;;23.42;89.16;100350.03;109584;1243;73152;-71
2023/08/28 04:41:04;;;;;;;13.90;5.20;;;;;;;23.46;88.90;100352.09;109557;1244;57727;-73
2023/08/28 04:43:34;;;;;;;19.80;5.80;;;;;;;23.56;88.01;100354.19;109599;1244;57643;-71
2023/08/28 04:46:05;;;;;;;12.90;5.20;;;;;;;23.70;87.09;100354.71;109628;1244;73129;-71
2023/08/28 04:48:34;;;;;;;12.30;4.50;;;;;;;23.81;86.48;100351.14;109436;1244;71467;-71
2023/08/28 04:51:04;;;;;;;11.30;5.10;;;;;;;23.89;86.38;100350.55;109402;1244;70890;-72
2023/08/28 04:53:33;;;;;;;8.60;5.10;;;;;;;23.94;85.95;100344.77;109453;1243;62753;-72
2023/08/28 04:56:02;;;;;;;15.30;5.80;;;;;;;24.04;85.31;100346.90;109586;1244;57107;-69
2023/08/28 04:58:31;;;;;;;12.40;5.20;;;;;;;24.09;85.08;100342.05;109494;1243;57687;-69
2023/08/28 05:01:00;;;;;;;7.70;4.80;;;;;;;24.16;84.35;100344.94;109500;1243;73607;-69
2023/08/28 05:03:29;;;;;;;9.60;5.10;;;;;;;24.16;84.00;100334.97;109586;1244;61282;-68
2023/08/28 05:05:58;;;;;;;11.00;5.00;;;;;;;24.27;83.64;100346.77;109540;1245;59784;-69
2023/08/28 05:08:27;;;;;;;9.90;4.70;;;;;;;24.36;83.51;100348.52;109235;1243;380751;-71
2023/08/28 05:10:56;;;;;;;12.40;5.50;;;;;;;24.41;83.39;100347.58;109487;1245;57860;-71
2023/08/28 05:13:27;;;;;;;16.40;5.50;;;;;;;24.53;83.29;100346.07;109470;1244;57198;-71
2023/08/28 05:15:58;;;;;;;12.50;4.80;;;;;;;24.62;83.20;100332.44;109524;1241;62994;-75
2023/08/28 05:18:27;;;;;;;18.10;5.40;;;;;;;24.77;82.65;100343.05;109705;1241;71684;-73
2023/08/28 05:20:55;;;;;;;16.80;5.80;;;;;;;24.87;82.16;100337.59;109647;1242;70583;-68
2023/08/28 05:23:27;;;;;;;14.30;5.20;;;;;;;24.96;81.65;100338.48;109661;1241;63671;-69
2023/08/28 05:25:56;;;;;;;13.50;5.50;;;;;;;25.05;81.04;100334.39;109565;1242;61033;-70
2023/08/28 05:28:24;;;;;;;11.00;5.60;;;;;;;25.16;80.59;100343.30;109566;1241;61576;-71
2023/08/28 05:30:53;;;;;;;11.30;5.10;;;;;;;25.27;80.39;100342.93;109588;1241;63554;-70
2023/08/28 05:33:22;;;;;;;16.10;5.70;;;;;;;25.39;79.97;100342.60;109635;1243;61029;-71
2023/08/28 05:35:51;;;;;;;12.30;5.70;;;;;;;25.47;78.65;100338.27;109474;1244;59998;-69
2023/08/28 05:38:20;;;;;;;8.50;5.00;;;;;;;25.55;78.29;100332.21;109642;1244;62443;-69
2023/08/28 05:40:49;;;;;;;10.60;5.10;;;;;;;25.59;78.09;100334.27;109486;1241;60504;-70
2023/08/28 05:43:17;;;;;;;7.60;4.60;;;;;;;25.73;77.99;100336.20;109660;1241;60758;-70
2023/08/28 05:45:47;;;;;;;6.90;4.90;;;;;;;25.82;77.68;100336.23;109455;1244;63312;-68
2023/08/28 05:48:16;;;;;;;8.60;4.80;;;;;;;25.79;76.64;100340.05;109333;1246;70618;-68
2023/08/28 05:50:48;;;;;;;9.20;5.20;;;;;;;25.81;76.68;100330.39;109462;1241;61337;-68
2023/08/28 05:53:17;;;;;;;;;;;;;;;25.98;76.76;100339.47;109502;1244;63406;-68
2023/08/28 05:55:46;;;;;;;11.70;5.00;;;;;;;26.10;76.00;100339.91;109565;1241;60977;-67
2023/08/28 05:58:14;;;;;;;10.30;5.30;;;;;;;26.21;75.91;100336.21;109621;1242;62020;-67
2023/08/28 06:00:43;;;;;;;15.00;5.50;;;;;;;26.32;74.82;100335.48;109480;1244;62789;-67
2023/08/28 06:03:12;;;;;;;9.40;4.60;;;;;;;26.44;72.81;100337.88;109475;1241;71875;-67
2023/08/28 06:05:41;;;;;;;9.80;5.20;;;;;;;26.57;72.21;100342.55;109596;1241;70972;-67
2023/08/28 06:08:10;;;;;;;11.90;5.70;;;;;;;26.68;72.22;100341.19;109552;1244;62799;-67
2023/08/28 06:10:40;;;;;;;16.50;6.00;;;;;;;26.83;71.66;100339.51;109529;1243;59682;-67
2023/08/28 06:13:12;;;;;;;;;;;;;;;26.98;71.25;100339.20;109548;1244;57813;-67
2023/08/28 06:15:40;;;;;;;9.60;5.10;;;;;;;27.10;71.39;100336.43;109536;1244;63740;-68
2023/08/28 06:18:09;;;;;;;9.60;4.90;;;;;;;27.18;70.47;100329.22;109560;1244;61468;-68
2023/08/28 06:20:38;;;;;;;9.70;5.00;;;;;;;27.27;69.80;100325.75;109587;1244;61484;-69
2023/08/28 06:23:07;;;;;;;12.10;5.60;;;;;;;27.31;69.05;100322.02;109578;1244;63682;-69
2023/08/28 06:25:36;;;;;;;10.10;5.00;;;;;;;27.29;68.64;100316.89;109535;1241;61816;-69
2023/08/28 06:28:05;;;;;;;12.60;5.90;;;;;;;27.45;68.73;100323.07;109631;1244;60393;-68
2023/08/28 06:30:33;;;;;;;12.70;5.60;;;;;;;27.46;68.28;100322.92;109669;1241;73646;-69
2023/08/28 06:33:04;;;;;;;14.80;6.10;;;;;;;27.56;67.86;100322.52;109610;1243;72084;-69
2023/08/28 06:35:33;;;;;;;9.80;5.00;;;;;;;27.75;68.58;100324.55;109666;1243;61060;-69
2023/08/28 06:38:02;;;;;;;12.90;5.90;;;;;;;27.86;67.76;100325.55;109637;1244;62766;-68
2023/08/28 06:40:31;;;;;;;11.40;6.20;;;;;;;27.98;67.36;100325.25;109528;1244;57710;-68
2023/08/28 06:43:00;;;;;;;18.80;5.80;;;;;;;28.15;67.21;100327.78;109658;1241;57266;-68
2023/08/28 06:45:29;;;;;;;15.60;6.00;;;;;;;28.29;65.88;100327.14;109641;1241;62618;-68
2023/08/28 06:47:58;;;;;;;12.70;5.30;;;;;;;28.42;66.03;100323.69;109621;1241;70142;-68
2023/08/28 06:50:27;;;;;;;23.20;6.30;;;;;;;28.59;65.35;100323.39;109586;1244;60466;-69
2023/08/28 06:52:56;;;;;;;11.90;6.10;;;;;;;28.78;64.28;100321.76;109663;1241;73769;-69
2023/08/28 06:55:26;;;;;;;12.70;5.30;;;;;;;28.94;64.15;100323.65;109651;1244;57770;-68
2023/08/28 06:57:54;;;;;;;16.30;5.50;;;;;;;29.06;62.80;100326.02;109653;1244;60031;-67
2023/08/28 07:00:23;;;;;;;11.70;5.20;;;;;;;29.20;62.56;100325.45;109569;1242;62551;-69
2023/08/28 07:02:54;;;;;;;12.50;5.10;;;;;;;29.37;61.82;100327.50;109489;1244;61493;-68
2023/08/28 07:05:24;;;;;;;10.50;5.00;;;;;;;29.48;61.47;100330.93;109506;1243;60855;-68
2023/08/28 07:07:52;;;;;;;9.90;4.90;;;;;;;29.54;60.56;100329.59;109629;1241;73959;-68
2023/08/28 07:10:21;;;;;;;10.40;5.30;;;;;;;29.56;60.56;100328.23;109460;1241;57652;-68
2023/08/28 07:12:50;;;;;;;15.80;6.00;;;;;;;29.59;60.57;100329.30;109640;1244;57766;-68
2023/08/28 07:15:19;;;;;;;7.90;4.50;;;;;;;29.76;60.24;100329.66;109615;1241;72505;-67
2023/08/28 07:17:47;;;;;;;10.10;4.90;;;;;;;29.93;60.05;100328.73;109632;1241;72975;-67
2023/08/28 07:20:16;;;;;;;9.50;4.80;;;;;;;30.07;60.15;100326.83;109615;1241;59687;-67
2023/08/28 07:22:45;;;;;;;10.20;5.00;;;;;;;30.20;59.38;100328.27;109628;1241;65075;-69
2023/08/28 07:25:16;;;;;;;9.00;5.20;;;;;;;30.39;59.01;100332.91;109627;1244;60860;-69
2023/08/28 07:27:44;;;;;;;13.90;5.30;;;;;;;30.52;57.67;100334.70;109601;1241;60802;-68
2023/08/28 07:30:13;;;;;;;6.40;4.50;;;;;;;30.55;58.29;100331.08;109581;1241;72496;-69
2023/08/28 07:32:45;;;;;;;11.90;5.10;;;;;;;30.69;58.34;100327.00;109673;1241;61328;-69
2023/08/28 07:35:14;;;;;;;10.40;5.30;;;;;;;30.78;57.48;100323.77;109436;1241;60016;-68
2023/08/28 07:37:43;;;;;;;11.60;5.00;;;;;;;30.72;56.78;100319.63;109551;1244;63188;-68
2023/08/28 07:40:12;;;;;;;9.40;5.50;;;;;;;30.87;57.08;100317.27;109564;1242;61359;-68
2023/08/28 07:42:40;;;;;;;8.20;5.00;;;;;;;30.93;56.56;100317.16;109653;1244;60943;-68
2023/08/28 07:45:09;;;;;;;9.10;4.80;;;;;;;30.96;56.34;100318.00;109692;1242;62605;-67
2023/08/28 07:47:38;;;;;;;8.10;5.00;;;;;;;31.03;56.41;100316.12;109687;1241;61515;-66
2023/08/28 07:50:08;;;;;;;11.40;5.60;;;;;;;31.13;55.93;100314.42;109675;1241;59793;-70
2023/08/28 07:52:36;;;;;;;8.50;4.70;;;;;;;31.27;55.47;100317.60;109601;1241;64920;-70
2023/08/28 07:55:06;;;;;;;11.40;5.10;;;;;;;31.39;55.41;100316.20;109623;1243;57696;-70
2023/08/28 07:57:35;;;;;;;14.80;5.20;;;;;;;31.41;55.03;100312.55;109626;1244;57608;-69
2023/08/28 08:00:06;;;;;;;8.20;4.30;;;;;;;31.59;54.92;100310.25;109634;1242;62532;-69
2023/08/28 08:02:40;;;;;;;7.20;4.90;;;;;;;31.56;54.18;100311.57;109698;1242;62531;-69
2023/08/28 08:05:10;;;;;;;5.80;4.70;;;;;;;31.43;53.83;100311.53;109536;1241;62059;-70
2023/08/28 08:07:42;;;;;;;9.00;4.90;;;;;;;31.58;54.21;100306.89;109595;1241;63562;-69
2023/08/28 08:10:13;;;;;;;8.90;5.00;;;;;;;31.81;54.02;100309.01;109614;1243;57436;-72
2023/08/28 08:12:42;;;;;;;9.50;5.60;;;;;;;32.03;53.41;100303.47;109524;1241;57678;-71
2023/08/28 08:15:11;;;;;;;8.60;4.30;;;;;;;32.03;52.43;100305.25;109371;1243;62078;-72
2023/08/28 08:17:40;;;;;;;7.20;5.00;;;;;;;32.11;52.57;100297.02;109632;1242;70679;-72
2023/08/28 08:20:13;;;;;;;12.70;5.10;;;;;;;32.18;51.84;100294.35;109475;1241;61139;-70
2023/08/28 08:22:46;;;;;;;13.30;5.50;;;;;;;32.35;52.27;100290.60;109481;1242;73435;-69
2023/08/28 08:25:15;;;;;;;9.60;4.90;;;;;;;32.49;51.44;100290.92;109271;1244;61659;-70
2023/08/28 08:27:44;;;;;;;8.70;4.70;;;;;;;32.66;51.37;100288.54;109509;1241;60683;-70
2023/08/28 08:30:13;;;;;;;9.30;5.10;;;;;;;32.70;50.65;100286.33;109496;1243;63660;-70
2023/08/28 08:32:43;;;;;;;9.30;5.40;;;;;;;32.79;50.27;100283.64;109563;1241;62912;-71
2023/08/28 08:35:12;;;;;;;10.10;4.50;;;;;;;32.84;50.19;100277.54;109647;1241;59755;-69
2023/08/28 08:37:42;;;;;;;10.50;5.00;;;;;;;32.87;49.76;100274.09;109430;1241;62533;-69
2023/08/28 08:40:13;;;;;;;7.50;4.90;;;;;;;33.03;49.74;100273.69;109526;1242;57367;-70
2023/08/28 08:42:42;;;;;;;7.30;4.70;;;;;;;33.21;49.74;100271.73;109544;1243;57611;-71
2023/08/28 08:45:11;;;;;;;7.90;5.00;;;;;;;33.44;49.15;100268.44;109513;1244;63527;-69
2023/08/28 08:47:40;;;;;;;15.40;5.30;;;;;;;33.52;48.36;100266.65;109500;1242;72579;-71
2023/08/28 08:50:12;;;;;;;11.00;5.70;;;;;;;33.73;48.25;100263.67;109550;1241;70279;-73
2023/08/28 08:52:43;;;;;;;9.90;5.30;;;;;;;33.93;47.68;100255.66;109550;1241;63508;-69
2023/08/28 08:55:45;;;;;;;10.20;4.60;;;;;;;34.03;46.36;100251.52;109520;1245;57140;-69
2023/08/28 08:58:16;;;;;;;10.20;4.60;;;;;;;34.02;46.80;100243.95;109520;1243;57672;-68
2023/08/28 09:00:45;;;;;;;12.10;5.00;;;;;;;34.20;46.57;100242.06;109381;1244;62008;-68
2023/08/28 09:03:14;;;;;;;14.00;5.80;;;;;;;34.35;46.02;100244.58;109416;1241;60678;-70
2023/08/28 09:05:47;;;;;;;11.70;5.00;;;;;;;34.50;45.31;100243.60;109288;1243;61625;-70
2023/08/28 09:08:16;;;;;;;10.20;5.20;;;;;;;34.59;44.33;100240.67;109339;1244;73550;-69
2023/08/28 09:10:45;;;;;;;10.50;4.50;;;;;;;34.51;43.96;100242.30;109311;1243;57195;-68
2023/08/28 09:13:14;;;;;;;7.80;4.60;;;;;;;34.59;44.01;100245.56;109444;1244;57653;-68
2023/08/28 09:15:43;;;;;;;8.50;4.50;;;;;;;34.51;43.85;100245.05;109438;1242;62565;-69
2023/08/28 09:18:12;;;;;;;10.60;4.20;;;;;;;34.46;43.86;100246.10;109483;1241;72734;-68
2023/08/28 09:20:41;;;;;;;6.50;4.20;;;;;;;34.80;43.11;100244.75;109397;1241;59638;-68
2023/08/28 09:23:10;;;;;;;7.50;4.30;;;;;;;34.80;42.88;100247.14;109510;1244;64067;-69
2023/08/28 09:25:39;;;;;;;8.40;4.80;;;;;;;34.83;43.08;100247.01;109460;1243;60468;-69
2023/08/28 09:28:08;;;;;;;7.20;4.30;;;;;;;35.11;42.34;100243.77;109522;1241;61424;-70
2023/08/28 09:30:37;;;;;;;6.70;4.20;;;;;;;35.25;42.22;100243.26;109438;1241;73925;-72
2023/08/28 09:33:07;;;;;;;6.80;4.30;;;;;;;35.23;42.02;100238.98;109514;1241;72621;-72
2023/08/28 09:35:41;;;;;;;8.40;4.00;;;;;;;35.42;42.43;100233.27;109517;1241;59335;-71
2023/08/28 09:38:11;;;;;;;12.40;4.60;;;;;;;35.50;41.39;100231.63;109416;1241;64063;-72
2023/08/28 09:40:41;;;;;;;8.60;4.30;;;;;;;35.66;40.87;100229.18;109482;1244;59637;-71
2023/08/28 09:43:12;;;;;;;13.50;5.30;;;;;;;35.83;40.33;100225.89;109559;1241;57124;-70
2023/08/28 09:45:44;;;;;;;9.20;4.60;;;;;;;36.01;39.81;100225.20;109458;1241;62991;-72
2023/08/28 09:48:15;;;;;;;8.00;4.40;;;;;;;35.91;39.17;100221.92;109524;1241;72506;-71
2023/08/28 09:50:44;;;;;;;7.60;4.30;;;;;;;36.08;39.47;100223.63;109565;1241;60134;-70
2023/08/28 09:53:15;;;;;;;6.90;4.20;;;;;;;36.33;39.08;100228.89;109504;1241;72762;-71
2023/08/28 09:55:57;;;;;;;8.00;4.30;;;;;;;36.44;37.76;100224.26;109559;1244;61631;-70
2023/08/28 09:58:28;;;;;;;7.40;4.60;;;;;;;36.19;37.82;100219.35;109277;1241;58071;-70
2023/08/28 10:00:57;;;;;;;8.30;4.20;;;;;;;36.15;37.98;100215.38;109515;1243;63363;-71
2023/08/28 10:03:27;;;;;;;8.60;4.60;;;;;;;36.47;37.64;100212.33;109480;1241;61292;-71
2023/08/28 10:05:59;;;;;;;8.70;4.50;;;;;;;36.49;37.64;100205.67;109439;1241;60652;-74
2023/08/28 10:08:31;;;;;;;6.00;4.00;;;;;;;36.44;37.62;100199.00;109485;1241;73001;-73
2023/08/28 10:11:04;;;;;;;8.10;4.10;;;;;;;36.66;37.80;100200.79;109740;1241;57220;-76
2023/08/28 10:13:36;;;;;;;8.10;4.10;;;;;;;36.90;37.25;100197.24;109730;1241;59976;-73
2023/08/28 10:16:16;;;;;;;9.10;4.80;;;;;;;36.90;36.71;100197.79;109739;1241;73596;-73
2023/08/28 10:19:04;;;;;;;6.90;4.30;;;;;;;36.96;36.22;100200.52;109462;1241;61182;-74
2023/08/28 10:21:34;;;;;;;8.80;4.20;;;;;;;37.00;34.95;100196.70;109603;1241;60329;-73
2023/08/28 10:24:05;;;;;;;8.00;4.00;;;;;;;37.30;34.35;100193.89;109499;1241;62438;-72
2023/08/28 10:26:35;;;;;;;6.30;4.10;;;;;;;37.39;34.66;100185.95;109467;1245;57733;-74
2023/08/28 10:29:06;;;;;;;8.20;4.40;;;;;;;37.43;35.37;100188.27;109433;1241;61151;-74
2023/08/28 10:31:37;;;;;;;5.80;3.80;;;;;;;37.63;34.08;100181.14;109578;1241;74108;-73
2023/08/28 10:34:07;;;;;;;6.40;3.50;;;;;;;37.95;32.10;100185.02;109622;1241;72316;-74
2023/08/28 10:36:37;;;;;;;7.20;3.70;;;;;;;38.35;31.78;100185.80;109636;1241;59701;-73
2023/08/28 10:39:27;;;;;;;7.40;3.70;;;;;;;38.54;31.71;100186.49;109710;1241;64122;-73
2023/08/28 10:41:56;;;;;;;10.40;4.20;;;;;;;38.99;30.78;100183.94;109685;1244;60831;-73
2023/08/28 10:44:27;;;;;;;5.70;3.60;;;;;;;38.89;30.45;100181.41;109615;1244;57640;-75
2023/08/28 10:46:56;;;;;;;8.50;3.80;;;;;;;38.07;30.49;100174.19;109614;1241;73425;-75
2023/08/28 10:49:24;;;;;;;9.50;3.80;;;;;;;38.41;30.44;100172.18;109709;1241;61964;-74
2023/08/28 10:52:02;;;;;;;11.70;3.40;;;;;;;39.00;29.99;100171.50;109481;1241;59877;-74
2023/08/28 10:54:37;;;;;;;9.00;3.50;;;;;;;39.21;29.04;100165.20;109602;1241;63224;-73
2023/08/28 10:57:20;;;;;;;8.40;3.40;;;;;;;39.08;28.85;100162.98;109468;1241;61233;-74
2023/08/28 10:59:49;;;;;;;5.10;3.20;;;;;;;40.00;28.04;100161.14;109645;1241;57214;-72
2023/08/28 11:02:19;;;;;;;6.10;3.60;;;;;;;40.46;27.08;100153.58;109511;1241;74158;-74
2023/08/28 11:04:48;;;;;;;4.60;3.20;;;;;;;40.10;27.87;100156.11;109331;1246;61196;-73
2023/08/28 11:07:23;;;;;;;8.10;3.40;;;;;;;39.42;28.26;100153.29;109530;1244;69237;-74
2023/08/28 11:10:20;;;;;;;5.70;3.50;;;;;;;38.73;29.08;100147.19;109519;1241;74319;-74
2023/08/28 11:13:02;;;;;;;9.20;3.60;;;;;;;38.37;29.39;100148.33;109355;1244;61412;-81
2023/08/28 11:15:42;;;;;;;8.30;3.50;;;;;;;38.82;29.33;100142.45;109366;1242;57601;-74
2023/08/28 11:18:30;;;;;;;8.90;3.60;;;;;;;39.41;29.04;100137.99;109460;1241;73388;-83
2023/08/28 11:21:06;;;;;;;10.00;3.80;;;;;;;40.06;27.94;100132.85;109554;1241;71689;-74
2023/08/28 11:23:38;;;;;;;8.70;3.70;;;;;;;39.68;27.83;100131.57;109368;1241;61296;-73
2023/08/28 11:26:26;;;;;;;8.60;3.80;;;;;;;39.59;27.89;100132.98;109456;1241;62606;-73
2023/08/28 11:28:55;;;;;;;9.00;3.50;;;;;;;39.77;27.47;100131.26;109428;1242;58841;-74